createdAt,value
2019-01-11T00:01:12.480Z,1.10
2019-01-11T00:03:40.723Z,1.30
2019-01-11T00:06:08.972Z,1.20
2019-01-11T00:08:37.424Z,1.23
2019-01-11T00:11:05.899Z,1.40
2019-01-11T00:13:34.119Z,1.10
2019-01-11T00:16:02.364Z,1.13
2019-01-11T00:18:30.874Z,1.20
2019-01-11T00:20:59.151Z,1.20
2019-01-11T00:23:27.366Z,1.70
2019-01-11T00:25:55.583Z,1.47
2019-01-11T00:28:23.825Z,1.00
2019-01-11T00:30:52.049Z,1.10
2019-01-11T00:33:20.280Z,1.67
2019-01-11T00:35:48.499Z,1.17
2019-01-11T00:38:16.770Z,1.10
2019-01-11T00:40:45.056Z,1.10
2019-01-11T00:43:15.178Z,1.37
2019-01-11T00:45:43.757Z,1.10
2019-01-11T00:48:12.023Z,1.30
2019-01-11T00:50:40.460Z,1.37
2019-01-11T00:53:08.731Z,1.10
2019-01-11T00:55:36.949Z,1.20
2019-01-11T00:58:05.425Z,1.43
2019-01-11T01:00:33.660Z,1.47
2019-01-11T01:03:02.139Z,1.30
2019-01-11T01:05:30.368Z,1.20
2019-01-11T01:07:58.611Z,1.20
2019-01-11T01:10:26.861Z,1.30
2019-01-11T01:12:55.130Z,1.03
2019-01-11T01:15:23.586Z,1.20
2019-01-11T01:17:51.823Z,1.30
2019-01-11T01:20:20.132Z,1.20
2019-01-11T01:22:48.355Z,1.30
2019-01-11T01:25:16.833Z,1.30
2019-01-11T01:27:45.357Z,1.10
2019-01-11T01:30:17.913Z,1.10
2019-01-11T01:32:46.164Z,1.27
2019-01-11T01:35:14.387Z,1.20
2019-01-11T01:37:42.631Z,1.40
2019-01-11T01:40:13.289Z,1.20
2019-01-11T01:42:41.539Z,1.40
2019-01-11T01:45:12.720Z,1.20
2019-01-11T01:47:40.951Z,1.20
2019-01-11T01:50:10.760Z,1.03
2019-01-11T01:52:38.993Z,1.20
2019-01-11T01:55:09.584Z,1.30
2019-01-11T01:57:38.029Z,1.13
2019-01-11T02:00:12.511Z,1.10
2019-01-11T02:02:40.783Z,1.10
2019-01-11T02:05:09.636Z,1.00
2019-01-11T02:07:37.918Z,0.93
2019-01-11T02:10:09.033Z,1.43
2019-01-11T02:12:37.274Z,1.13
2019-01-11T02:15:06.840Z,1.23
2019-01-11T02:17:35.076Z,1.10
2019-01-11T02:20:04.468Z,1.30
2019-01-11T02:22:32.703Z,1.20
2019-01-11T02:25:01.171Z,1.33
2019-01-11T02:27:29.504Z,1.00
2019-01-11T02:29:57.726Z,1.10
2019-01-11T02:32:26.044Z,1.30
2019-01-11T02:34:54.277Z,1.20
2019-01-11T02:37:22.495Z,1.17
2019-01-11T02:39:50.745Z,1.20
2019-01-11T02:42:19.204Z,1.20
2019-01-11T02:44:47.439Z,1.10
2019-01-11T02:47:15.752Z,1.20
2019-01-11T02:49:44.207Z,1.10
2019-01-11T02:52:12.432Z,1.30
2019-01-11T02:54:40.688Z,1.30
2019-01-11T02:57:08.970Z,1.53
2019-01-11T02:59:37.256Z,1.10
2019-01-11T03:02:05.522Z,1.20
2019-01-11T03:04:33.732Z,1.20
2019-01-11T03:07:01.965Z,1.20
2019-01-11T03:09:30.355Z,1.30
2019-01-11T03:11:58.635Z,1.13
2019-01-11T03:14:27.264Z,1.03
2019-01-11T03:16:55.478Z,1.10
2019-01-11T03:19:23.731Z,1.30
2019-01-11T03:21:51.952Z,1.17
2019-01-11T03:24:20.168Z,1.27
2019-01-11T03:26:48.415Z,1.30
2019-01-11T03:29:16.637Z,1.10
2019-01-11T03:31:44.889Z,1.00
2019-01-11T03:34:13.131Z,1.20
2019-01-11T03:36:41.348Z,1.17
2019-01-11T03:39:10.385Z,1.10
2019-01-11T03:41:40.232Z,1.20
2019-01-11T03:44:08.476Z,1.20
2019-01-11T03:46:36.691Z,1.17
2019-01-11T03:49:04.940Z,1.10
2019-01-11T03:51:33.162Z,1.27
2019-01-11T03:54:01.628Z,1.10
2019-01-11T03:56:29.863Z,1.10
2019-01-11T03:58:58.083Z,1.03
2019-01-11T04:01:26.324Z,1.03
2019-01-11T04:03:54.815Z,1.53
2019-01-11T04:06:23.072Z,1.13
2019-01-11T04:08:51.397Z,1.10
2019-01-11T04:11:19.629Z,1.17
2019-01-11T04:13:47.847Z,1.10
2019-01-11T04:16:16.136Z,1.20
2019-01-11T04:18:46.011Z,1.23
2019-01-11T04:21:14.483Z,1.47
2019-01-11T04:23:42.723Z,1.10
2019-01-11T04:26:10.954Z,0.90
2019-01-11T04:28:39.201Z,1.13
2019-01-11T04:31:07.411Z,5.70
2019-01-11T04:33:35.627Z,1.77
2019-01-11T04:36:03.874Z,1.30
2019-01-11T04:38:32.097Z,1.23
2019-01-11T04:41:00.457Z,1.60
2019-01-11T04:43:28.696Z,1.13
2019-01-11T04:45:56.940Z,1.20
2019-01-11T04:48:25.343Z,1.30
2019-01-11T04:50:53.872Z,1.20
2019-01-11T04:53:22.112Z,1.20
2019-01-11T04:55:50.341Z,1.63
2019-01-11T04:58:18.597Z,1.33
2019-01-11T05:00:46.831Z,1.07
2019-01-11T05:03:15.093Z,1.17
2019-01-11T05:05:43.327Z,1.13
2019-01-11T05:08:11.548Z,1.10
2019-01-11T05:10:40.010Z,1.20
2019-01-11T05:13:25.938Z,1.27
2019-01-11T05:15:54.215Z,1.43
2019-01-11T05:18:22.664Z,1.23
2019-01-11T05:20:51.075Z,1.20
2019-01-11T05:23:19.303Z,1.20
2019-01-11T05:25:47.545Z,1.20
2019-01-11T05:28:15.992Z,1.37
2019-01-11T05:30:44.316Z,1.40
2019-01-11T05:33:12.549Z,1.20
2019-01-11T05:35:40.794Z,1.37
2019-01-11T05:38:09.261Z,1.67
2019-01-11T05:40:37.491Z,1.30
2019-01-11T05:43:05.740Z,1.20
2019-01-11T05:45:34.199Z,1.13
2019-01-11T05:48:02.498Z,1.13
2019-01-11T05:50:30.748Z,1.97
2019-01-11T05:52:58.966Z,1.30
2019-01-11T05:55:28.872Z,1.43
2019-01-11T05:58:07.830Z,1.30
2019-01-11T06:00:36.308Z,1.37
2019-01-11T06:03:04.523Z,1.63
2019-01-11T06:05:32.776Z,1.27
2019-01-11T06:08:02.583Z,1.43
2019-01-11T06:10:30.856Z,1.20
2019-01-11T06:12:59.225Z,1.40
2019-01-11T06:15:27.750Z,1.50
2019-01-11T06:17:55.975Z,1.50
2019-01-11T06:20:30.003Z,1.30
2019-01-11T06:22:54.386Z,1.27
2019-01-11T06:25:22.600Z,1.30
2019-01-11T06:27:51.055Z,1.20
2019-01-11T06:30:19.233Z,1.20
2019-01-11T06:32:47.480Z,1.30
2019-01-11T06:35:15.724Z,1.67
2019-01-11T06:37:43.952Z,1.40
2019-01-11T06:40:12.186Z,1.73
2019-01-11T06:42:40.403Z,1.30
2019-01-11T06:45:09.988Z,1.30
2019-01-11T06:47:39.106Z,1.50
2019-01-11T06:50:15.145Z,1.60
2019-01-11T06:52:43.601Z,1.50
2019-01-11T06:55:12.113Z,1.90
2019-01-11T06:57:40.347Z,1.40
2019-01-11T07:00:13.790Z,1.50
2019-01-11T07:02:42.276Z,1.50
2019-01-11T07:05:11.083Z,1.87
2019-01-11T07:07:39.302Z,1.70
2019-01-11T07:10:13.720Z,1.50
2019-01-11T07:12:41.956Z,1.57
2019-01-11T07:15:10.740Z,2.03
2019-01-11T07:17:39.004Z,2.57
2019-01-11T07:20:10.701Z,2.20
2019-01-11T07:22:38.960Z,1.60
2019-01-11T07:25:09.384Z,1.63
2019-01-11T07:27:39.269Z,2.27
2019-01-11T07:30:10.723Z,1.80
2019-01-11T07:32:38.971Z,1.67
2019-01-11T07:35:07.192Z,2.30
2019-01-11T07:37:35.459Z,1.53
2019-01-11T07:40:06.308Z,1.63
2019-01-11T07:42:34.754Z,2.07
2019-01-11T07:45:03.121Z,1.80
2019-01-11T07:47:31.362Z,1.50
2019-01-11T07:49:59.576Z,2.47
2019-01-11T07:52:27.824Z,1.67
2019-01-11T07:54:56.115Z,2.23
2019-01-11T07:57:24.358Z,1.80
2019-01-11T07:59:52.612Z,1.87
2019-01-11T08:02:21.069Z,1.80
2019-01-11T08:04:49.308Z,1.67
2019-01-11T08:07:17.596Z,2.57
2019-01-11T08:09:46.802Z,1.77
2019-01-11T08:12:17.571Z,2.57
2019-01-11T08:14:45.815Z,2.30
2019-01-11T08:17:14.033Z,1.60
2019-01-11T08:19:42.285Z,1.93
2019-01-11T08:25:05.609Z,3.17
2019-01-11T08:30:53.876Z,3.10
2019-01-11T08:33:34.964Z,2.60
2019-01-11T08:36:15.949Z,2.50
2019-01-11T08:38:57.088Z,2.50
2019-01-11T08:41:38.336Z,2.33
2019-01-11T08:47:38.062Z,2.70
2019-01-11T08:50:18.772Z,1.93
2019-01-11T08:52:59.602Z,2.53
2019-01-11T08:55:40.704Z,2.10
2019-01-11T08:58:19.359Z,2.43
2019-01-11T09:01:27.606Z,1.53
2019-01-11T09:04:15.512Z,2.93
2019-01-11T09:07:03.289Z,1.70
2019-01-11T09:09:51.388Z,1.40
2019-01-11T09:12:39.064Z,1.97
2019-01-11T09:15:26.715Z,2.37
2019-01-11T09:18:16.290Z,1.90
2019-01-11T09:21:09.314Z,2.27
2019-01-11T09:23:53.353Z,1.90
2019-01-11T09:30:29.061Z,2.13
2019-01-11T09:33:20.462Z,1.83
2019-01-11T09:36:06.196Z,2.77
2019-01-11T09:38:53.858Z,2.43
2019-01-11T09:41:41.535Z,2.30
2019-01-11T09:44:31.297Z,2.97
2019-01-11T09:47:18.967Z,2.17
2019-01-11T09:59:44.468Z,1.93
2019-01-11T10:02:44.710Z,2.17
2019-01-11T10:05:25.268Z,1.97
2019-01-11T10:08:05.850Z,2.17
2019-01-11T10:10:46.910Z,2.00
2019-01-11T10:13:27.848Z,3.17
2019-01-11T10:16:08.782Z,2.07
2019-01-11T10:18:49.388Z,1.60
2019-01-11T10:24:52.135Z,3.00
2019-01-11T10:27:52.061Z,2.00
2019-01-11T10:30:32.649Z,1.63
2019-01-11T10:33:12.980Z,2.50
2019-01-11T10:38:58.419Z,3.00
2019-01-11T10:41:58.791Z,1.63
2019-01-11T10:44:39.217Z,2.53
2019-01-11T10:50:38.716Z,2.03
2019-01-11T10:53:19.334Z,1.70
2019-01-11T10:56:00.172Z,1.40
2019-01-11T10:58:41.293Z,2.50
2019-01-11T11:01:22.543Z,1.83
2019-01-11T11:04:03.335Z,2.60
2019-01-11T11:06:44.116Z,2.07
2019-01-11T11:09:25.240Z,2.43
2019-01-11T11:12:06.089Z,1.70
2019-01-11T11:17:52.252Z,2.37
2019-01-11T11:29:55.356Z,2.93
2019-01-11T11:32:37.633Z,1.67
2019-01-11T11:35:38.041Z,1.80
2019-01-11T11:38:18.731Z,2.00
2019-01-11T11:44:07.942Z,1.63
2019-01-11T11:46:48.120Z,1.60
2019-01-11T11:49:28.902Z,1.80
2019-01-11T11:52:29.056Z,1.87
2019-01-11T11:55:10.004Z,1.87
2019-01-11T11:57:50.804Z,2.03
2019-01-11T12:00:31.812Z,2.20
2019-01-11T12:06:17.985Z,1.77
2019-01-11T12:08:58.689Z,1.70
2019-01-11T12:11:38.891Z,2.37
2019-01-11T12:17:28.364Z,2.20
2019-01-11T12:20:09.004Z,2.00
2019-01-11T12:22:50.048Z,1.60
2019-01-11T12:31:41.829Z,1.60
2019-01-11T12:34:22.576Z,2.63
2019-01-11T12:37:03.746Z,1.63
2019-01-11T12:39:44.849Z,1.50
2019-01-11T12:42:25.905Z,1.63
2019-01-11T12:45:06.780Z,1.63
2019-01-11T12:48:08.417Z,1.70
2019-01-11T12:51:07.872Z,1.67
2019-01-11T12:53:48.517Z,1.27
2019-01-11T13:00:06.180Z,2.13
2019-01-11T13:05:14.169Z,1.93
2019-01-11T13:07:54.940Z,1.20
2019-01-11T13:10:35.480Z,1.27
2019-01-11T13:13:16.636Z,1.67
2019-01-11T13:15:58.002Z,1.73
2019-01-11T13:18:38.537Z,1.97
2019-01-11T13:24:24.821Z,1.87
2019-01-11T13:27:05.899Z,1.63
2019-01-11T13:29:46.676Z,1.70
2019-01-11T13:32:27.707Z,1.57
2019-01-11T13:35:07.997Z,1.23
2019-01-11T13:41:07.615Z,2.07
2019-01-11T13:43:47.825Z,2.67
2019-01-11T13:46:28.620Z,1.50
2019-01-11T13:49:09.841Z,2.03
2019-01-11T13:51:50.455Z,2.40
2019-01-11T13:54:31.237Z,1.80
2019-01-11T13:57:31.588Z,1.50
2019-01-11T14:00:12.537Z,1.47
2019-01-11T14:02:53.448Z,1.83
2019-01-11T14:05:34.387Z,2.13
2019-01-11T14:08:15.337Z,1.47
2019-01-11T14:10:55.658Z,1.97
2019-01-11T14:16:54.343Z,1.90
2019-01-11T14:19:34.770Z,2.40
2019-01-11T14:22:15.535Z,1.80
2019-01-11T14:24:56.508Z,2.30
2019-01-11T14:27:37.440Z,1.73
2019-01-11T14:30:17.640Z,2.00
2019-01-11T14:32:58.332Z,3.50
2019-01-11T14:35:39.388Z,2.40
2019-01-11T14:38:20.500Z,1.73
2019-01-11T14:41:01.761Z,2.07
2019-01-11T14:43:42.573Z,1.30
2019-01-11T14:46:23.324Z,1.77
2019-01-11T14:49:04.414Z,2.17
2019-01-11T14:51:45.333Z,1.60
2019-01-11T14:54:26.206Z,1.80
2019-01-11T14:57:07.581Z,2.33
2019-01-11T14:59:47.836Z,2.40
2019-01-11T15:02:28.963Z,2.20
2019-01-11T15:05:10.113Z,2.30
2019-01-11T15:07:51.138Z,2.43
2019-01-11T15:10:31.785Z,1.30
2019-01-11T15:13:12.577Z,1.93
2019-01-11T15:15:53.056Z,3.37
2019-01-11T15:18:33.310Z,1.83
2019-01-11T15:21:14.073Z,1.97
2019-01-11T15:23:54.261Z,2.17
2019-01-11T15:26:35.092Z,2.97
2019-01-11T15:29:15.901Z,2.70
2019-01-11T15:31:56.036Z,2.30
2019-01-11T15:34:36.957Z,2.70
2019-01-11T15:37:18.032Z,1.93
2019-01-11T15:39:58.689Z,1.50
2019-01-11T15:42:39.634Z,3.00
2019-01-11T15:45:20.532Z,2.53
2019-01-11T15:48:01.160Z,2.27
2019-01-11T15:50:41.761Z,2.47
2019-01-11T15:53:22.260Z,3.10
2019-01-11T15:56:03.388Z,3.30
2019-01-11T15:58:44.536Z,2.77
2019-01-11T16:01:24.861Z,3.30
2019-01-11T16:04:05.116Z,2.50
2019-01-11T16:06:46.161Z,3.77
2019-01-11T16:09:27.028Z,2.60
2019-01-11T16:12:07.696Z,3.00
2019-01-11T16:14:48.832Z,2.53
2019-01-11T16:20:12.149Z,2.70
2019-01-11T16:22:53.131Z,3.20
2019-01-11T16:25:34.101Z,3.67
2019-01-11T16:28:14.342Z,3.07
2019-01-11T16:30:55.320Z,2.73
2019-01-11T16:33:35.801Z,3.53
2019-01-11T16:39:21.927Z,3.13
2019-01-11T16:42:03.078Z,2.90
2019-01-11T16:44:43.920Z,3.33
2019-01-11T16:47:25.001Z,3.87
2019-01-11T16:50:05.469Z,3.17
2019-01-11T16:52:46.525Z,3.47
2019-01-11T16:55:27.405Z,3.23
2019-01-11T16:58:08.260Z,2.50
2019-01-11T17:00:48.945Z,3.73
2019-01-11T17:03:29.758Z,3.07
2019-01-11T17:06:10.405Z,4.00
2019-01-11T17:08:51.480Z,4.57
2019-01-11T17:11:32.244Z,3.47
2019-01-11T17:14:12.464Z,3.53
2019-01-11T17:16:53.080Z,4.80
2019-01-11T17:19:34.372Z,5.40
2019-01-11T17:22:14.965Z,3.30
2019-01-11T17:28:04.416Z,4.00
2019-01-11T17:30:45.179Z,5.03
2019-01-11T17:33:26.108Z,4.50
2019-01-11T17:36:07.113Z,5.93
2019-01-11T17:38:48.052Z,5.63
2019-01-11T17:41:28.949Z,4.47
2019-01-11T17:44:09.876Z,2.43
2019-01-11T17:46:50.724Z,3.10
2019-01-11T17:49:31.440Z,3.90
2019-01-11T17:52:12.404Z,5.47
2019-01-11T17:54:53.163Z,3.77
2019-01-11T17:57:33.951Z,5.13
2019-01-11T18:00:15.626Z,4.07
2019-01-11T18:02:56.432Z,5.57
2019-01-11T18:05:37.321Z,5.27
2019-01-11T18:08:18.435Z,5.33
2019-01-11T18:10:59.081Z,5.37
2019-01-11T18:13:39.355Z,5.63
2019-01-11T18:16:20.271Z,5.07
2019-01-11T18:19:01.045Z,4.23
2019-01-11T18:21:42.091Z,4.17
2019-01-11T18:24:22.977Z,7.03
2019-01-11T18:27:03.449Z,6.23
2019-01-11T18:29:44.117Z,5.37
2019-01-11T18:32:24.695Z,4.03
2019-01-11T18:38:23.626Z,6.17
2019-01-11T18:41:04.236Z,6.83
2019-01-11T18:43:44.899Z,6.00
2019-01-11T18:46:25.625Z,5.50
2019-01-11T18:49:06.785Z,5.23
2019-01-11T18:51:47.009Z,7.27
2019-01-11T18:54:27.929Z,4.37
2019-01-11T18:57:08.797Z,6.83
2019-01-11T18:59:49.712Z,5.97
2019-01-11T19:05:35.807Z,4.17
2019-01-11T19:08:16.903Z,5.50
2019-01-11T19:10:57.702Z,4.77
2019-01-11T19:13:36.368Z,4.67
2019-01-11T19:16:24.044Z,6.60
2019-01-11T19:19:11.697Z,5.07
2019-01-11T19:21:59.721Z,6.10
2019-01-11T19:24:47.384Z,5.97
2019-01-11T19:27:53.075Z,6.47
2019-01-11T19:30:34.426Z,5.80
2019-01-11T19:33:15.041Z,5.87
2019-01-11T19:36:15.122Z,5.07
2019-01-11T19:38:55.625Z,5.60
2019-01-11T19:41:36.204Z,6.03
2019-01-11T19:44:36.319Z,5.93
2019-01-11T19:47:16.940Z,5.10
2019-01-11T19:49:57.860Z,5.60
2019-01-11T19:52:38.941Z,7.10
2019-01-11T19:55:19.616Z,5.57
2019-01-11T19:58:00.519Z,4.90
2019-01-11T20:00:41.831Z,7.00
2019-01-11T20:03:22.740Z,7.10
2019-01-11T20:06:03.486Z,18.07
2019-01-11T20:08:44.324Z,6.40
2019-01-11T20:17:39.796Z,6.50
2019-01-11T20:20:20.885Z,5.80
2019-01-11T20:23:21.256Z,5.00
2019-01-11T20:26:01.810Z,7.07
2019-01-11T20:28:42.825Z,4.67
2019-01-11T20:31:23.798Z,4.87
2019-01-11T20:34:03.989Z,8.43
2019-01-11T20:36:44.853Z,5.67
2019-01-11T20:39:26.159Z,5.53
2019-01-11T20:42:07.086Z,5.43
2019-01-11T20:45:07.586Z,5.17
2019-01-11T20:47:47.879Z,6.33
2019-01-11T20:50:28.417Z,4.97
2019-01-11T20:53:09.125Z,6.37
2019-01-11T20:55:49.858Z,6.20
2019-01-11T20:58:30.244Z,7.97
2019-01-11T21:01:12.954Z,7.67
2019-01-11T21:03:53.145Z,7.83
2019-01-11T21:06:34.300Z,6.90
2019-01-11T21:09:14.826Z,5.03
2019-01-11T21:11:55.161Z,7.37
2019-01-11T21:14:35.404Z,7.13
2019-01-11T21:17:16.452Z,6.30
2019-01-11T21:19:57.393Z,5.87
2019-01-11T21:22:37.982Z,4.80
2019-01-11T21:25:18.395Z,6.67
2019-01-11T21:27:59.340Z,5.73
2019-01-11T21:30:40.358Z,7.90
2019-01-11T21:33:21.227Z,6.57
2019-01-11T21:36:01.922Z,5.73
2019-01-11T21:42:01.655Z,6.80
2019-01-11T21:45:01.698Z,6.87
2019-01-11T21:47:42.189Z,7.13
2019-01-11T21:53:31.496Z,5.60
2019-01-11T21:56:12.371Z,6.07
2019-01-11T22:01:58.850Z,6.13
2019-01-11T22:07:29.207Z,6.90
2019-01-11T22:10:09.843Z,6.40
2019-01-11T22:12:50.116Z,5.67
2019-01-11T22:15:30.369Z,5.50
2019-01-11T22:17:58.628Z,5.63
2019-01-11T22:20:26.888Z,4.97
2019-01-11T22:22:55.108Z,5.00
2019-01-11T22:25:23.345Z,4.93
2019-01-11T22:27:51.582Z,7.30
2019-01-11T22:30:29.852Z,6.63
2019-01-11T22:32:53.023Z,5.40
2019-01-11T22:35:21.249Z,5.37
2019-01-11T22:37:49.492Z,6.17
2019-01-11T22:40:22.406Z,6.10
2019-01-11T22:42:52.885Z,5.37
2019-01-11T22:45:21.369Z,6.67
2019-01-11T22:47:49.590Z,7.37
2019-01-11T22:50:17.835Z,6.23
2019-01-11T22:52:46.114Z,5.83
2019-01-11T22:55:16.419Z,7.13
2019-01-11T22:57:44.640Z,6.70
2019-01-11T23:00:36.685Z,6.93
2019-01-11T23:03:08.348Z,6.53
2019-01-11T23:05:38.374Z,4.27
2019-01-11T23:08:07.256Z,5.87
2019-01-11T23:10:41.449Z,6.30
2019-01-11T23:13:09.753Z,5.33
2019-01-11T23:15:37.988Z,6.43
2019-01-11T23:18:06.406Z,6.13
2019-01-11T23:20:34.623Z,6.07
2019-01-11T23:23:02.959Z,5.50
2019-01-11T23:25:31.243Z,7.37
2019-01-11T23:27:59.477Z,8.40
2019-01-11T23:30:27.728Z,4.47
2019-01-11T23:32:55.956Z,6.33
2019-01-11T23:35:24.215Z,7.43
2019-01-11T23:37:52.714Z,4.67
2019-01-11T23:40:20.972Z,6.30
2019-01-11T23:42:49.200Z,6.20
2019-01-11T23:45:17.460Z,5.80
2019-01-11T23:47:45.680Z,5.40
2019-01-11T23:50:14.881Z,7.10
2019-01-11T23:52:43.386Z,5.93
2019-01-11T23:55:11.981Z,6.53
2019-01-11T23:57:40.234Z,6.77
